Weather at John F Kennedy International Airport

Public forecast

Using degrees Fahrenheit for public forecast. Weather courtesy of forecast.io.

Current aviation weather report (METAR) for John F Kennedy International Airport

Retrieved 2021/07/28 13:51 UTC (28 minutes ago):

KJFK 281351Z 01010KT 10SM SCT021 BKN110 BKN250 24/19 A3000 RMK AO2 SLP157 T02440189

Aviation forecast (TAF) for John F Kennedy International Airport

Retrieved 2021/07/28 12:46 UTC (2 hours ago):

TAF KJFK 281140Z 2812/2918 36011KT P6SM SCT025 SCT120 TEMPO 2813/2815 BKN025 FM281800 03011KT P6SM SCT050 SCT250 FM282000 14010KT P6SM SCT050 FM290000 12007KT P6SM SCT050 FM290500 15006KT P6SM SCT015 SCT050 FM290800 15006KT 6SM BR SCT007 BKN015 FM291200 15007KT 6SM BR VCSH BKN035